createdAt,value
2019-05-23T00:01:29.645Z,8.57
2019-05-23T00:04:14.198Z,8.87
2019-05-23T00:06:58.490Z,8.37
2019-05-23T00:09:42.950Z,9.30
2019-05-23T00:12:11.358Z,8.77
2019-05-23T00:14:54.690Z,9.03
2019-05-23T00:17:20.738Z,8.53
2019-05-23T00:19:47.631Z,8.03
2019-05-23T00:22:13.818Z,9.10
2019-05-23T00:24:39.959Z,9.53
2019-05-23T00:27:06.449Z,9.90
2019-05-23T00:29:33.031Z,10.10
2019-05-23T00:31:59.099Z,9.30
2019-05-23T00:34:26.841Z,7.27
2019-05-23T00:36:53.434Z,6.97
2019-05-23T00:39:19.420Z,7.30
2019-05-23T00:41:45.853Z,7.57
2019-05-23T00:44:12.428Z,8.20
2019-05-23T00:46:38.561Z,8.70
2019-05-23T00:49:04.948Z,8.73
2019-05-23T00:51:31.581Z,9.80
2019-05-23T00:53:57.960Z,10.13
2019-05-23T00:56:24.001Z,8.83
2019-05-23T00:58:50.076Z,9.13
2019-05-23T01:01:16.294Z,9.40
2019-05-23T01:03:42.909Z,9.60
2019-05-23T01:06:10.111Z,8.20
2019-05-23T01:08:36.587Z,7.83
2019-05-23T01:11:03.966Z,7.80
2019-05-23T01:13:29.898Z,8.83
2019-05-23T01:15:56.933Z,9.40
2019-05-23T01:18:22.860Z,9.70
2019-05-23T01:20:49.099Z,8.93
2019-05-23T01:23:15.271Z,9.17
2019-05-23T01:25:41.437Z,9.93
2019-05-23T01:28:07.564Z,9.17
2019-05-23T01:30:33.796Z,9.57
2019-05-23T01:33:00.830Z,9.10
2019-05-23T01:35:27.299Z,9.70
2019-05-23T01:37:53.845Z,9.97
2019-05-23T01:40:20.019Z,8.70
2019-05-23T01:42:46.352Z,10.17
2019-05-23T01:45:13.088Z,8.37
2019-05-23T01:47:39.419Z,7.30
2019-05-23T01:50:08.036Z,8.23
2019-05-23T01:52:34.546Z,8.93
2019-05-23T01:55:00.619Z,9.60
2019-05-23T01:57:26.564Z,10.07
2019-05-23T02:00:08.310Z,9.90
2019-05-23T02:02:20.589Z,10.37
2019-05-23T02:04:46.671Z,9.80
2019-05-23T02:07:12.892Z,10.00
2019-05-23T02:09:39.327Z,9.63
2019-05-23T02:12:07.819Z,7.60
2019-05-23T02:14:33.935Z,8.10
2019-05-23T02:17:00.576Z,8.27
2019-05-23T02:19:27.327Z,8.60
2019-05-23T02:21:53.357Z,9.07
2019-05-23T02:24:19.429Z,9.10
2019-05-23T02:26:45.868Z,9.57
2019-05-23T02:29:12.405Z,8.93
2019-05-23T02:31:38.579Z,9.77
2019-05-23T02:34:04.519Z,9.57
2019-05-23T02:36:30.807Z,9.50
2019-05-23T02:38:56.851Z,9.30
2019-05-23T02:41:22.927Z,8.73
2019-05-23T02:43:48.903Z,8.50
2019-05-23T02:46:15.776Z,8.37
2019-05-23T02:48:41.960Z,8.50
2019-05-23T02:51:11.739Z,8.60
2019-05-23T02:53:38.195Z,9.00
2019-05-23T02:56:10.171Z,9.07
2019-05-23T02:58:58.321Z,9.37
2019-05-23T03:01:30.859Z,10.13
2019-05-23T03:04:01.682Z,9.47
2019-05-23T03:06:28.504Z,9.57
2019-05-23T03:08:54.737Z,9.90
2019-05-23T03:11:27.287Z,9.20
2019-05-23T03:13:53.561Z,9.10
2019-05-23T03:16:22.588Z,8.83
2019-05-23T03:18:52.402Z,8.23
2019-05-23T03:21:18.744Z,9.03
2019-05-23T03:23:47.585Z,9.63
2019-05-23T03:26:35.500Z,8.60
2019-05-23T03:29:02.884Z,9.13
2019-05-23T03:31:31.894Z,9.10
2019-05-23T03:33:57.106Z,8.67
2019-05-23T03:36:23.158Z,9.23
2019-05-23T03:38:49.234Z,9.10
2019-05-23T03:41:15.701Z,8.87
2019-05-23T03:43:41.994Z,8.37
2019-05-23T03:46:11.223Z,7.97
2019-05-23T03:48:37.421Z,8.20
2019-05-23T03:51:04.567Z,8.80
2019-05-23T03:53:30.580Z,8.77
2019-05-23T03:55:56.806Z,7.90
2019-05-23T03:58:22.979Z,8.10
2019-05-23T04:00:49.755Z,7.77
2019-05-23T04:03:16.642Z,7.60
2019-05-23T04:05:42.852Z,7.63
2019-05-23T04:08:09.037Z,8.03
2019-05-23T04:10:35.566Z,8.40
2019-05-23T04:13:01.757Z,7.90
2019-05-23T04:15:27.954Z,6.33
2019-05-23T04:17:53.939Z,7.03
2019-05-23T04:20:20.034Z,6.87
2019-05-23T04:22:46.061Z,6.57
2019-05-23T04:25:12.188Z,6.03
2019-05-23T04:27:38.305Z,5.33
2019-05-23T04:30:09.101Z,5.20
2019-05-23T04:32:35.265Z,5.10
2019-05-23T04:35:02.056Z,5.13
2019-05-23T04:37:29.174Z,5.10
2019-05-23T04:39:55.138Z,4.70
2019-05-23T04:42:21.615Z,4.93
2019-05-23T04:44:47.940Z,4.70
2019-05-23T04:47:14.141Z,4.50
2019-05-23T04:49:41.620Z,4.10
2019-05-23T04:52:07.555Z,4.07
2019-05-23T04:54:34.575Z,4.30
2019-05-23T04:57:01.179Z,4.20
2019-05-23T04:59:28.161Z,4.00
2019-05-23T05:01:55.218Z,3.93
2019-05-23T05:04:22.606Z,3.67
2019-05-23T05:06:49.182Z,3.47
2019-05-23T05:09:15.344Z,3.90
2019-05-23T05:11:41.355Z,3.70
2019-05-23T05:14:07.479Z,3.80
2019-05-23T05:16:33.472Z,3.90
2019-05-23T05:18:59.517Z,4.27
2019-05-23T05:21:26.057Z,3.73
2019-05-23T05:23:52.325Z,3.63
2019-05-23T05:26:21.320Z,4.00
2019-05-23T05:28:47.348Z,3.97
2019-05-23T05:31:13.369Z,3.60
2019-05-23T05:33:39.568Z,4.10
2019-05-23T05:36:05.745Z,3.80
2019-05-23T05:38:32.139Z,3.87
2019-05-23T05:40:58.283Z,3.40
2019-05-23T05:43:24.976Z,3.60
2019-05-23T05:45:51.117Z,3.47
2019-05-23T05:48:17.419Z,3.47
2019-05-23T05:50:43.729Z,3.42
2019-05-23T05:53:10.080Z,3.30
2019-05-23T05:55:36.217Z,3.00
2019-05-23T05:58:02.495Z,2.72
2019-05-23T06:00:28.929Z,3.15
2019-05-23T06:03:04.211Z,3.60
2019-05-23T06:05:23.513Z,3.42
2019-05-23T06:07:49.508Z,3.17
2019-05-23T06:10:16.045Z,3.60
2019-05-23T06:12:42.227Z,3.83
2019-05-23T06:15:09.570Z,3.60
2019-05-23T06:17:35.738Z,3.80
2019-05-23T06:20:04.284Z,3.30
2019-05-23T06:22:30.764Z,3.65
2019-05-23T06:24:58.225Z,3.47
2019-05-23T06:27:24.683Z,3.75
2019-05-23T06:29:51.029Z,4.23
2019-05-23T06:32:17.202Z,3.57
2019-05-23T06:34:43.143Z,4.20
2019-05-23T06:37:09.367Z,3.65
2019-05-23T06:39:35.474Z,3.43
2019-05-23T06:42:02.256Z,3.67
2019-05-23T06:44:28.294Z,3.95
2019-05-23T06:46:54.636Z,4.00
2019-05-23T06:49:20.774Z,4.22
2019-05-23T06:51:46.852Z,4.10
2019-05-23T06:54:13.058Z,3.90
2019-05-23T06:56:39.000Z,3.57
2019-05-23T06:59:05.253Z,4.47
2019-05-23T07:01:31.491Z,4.43
2019-05-23T07:03:58.889Z,3.87
2019-05-23T07:06:25.222Z,4.10
2019-05-23T07:08:51.825Z,4.20
2019-05-23T07:11:20.526Z,4.22
2019-05-23T07:13:46.928Z,3.95
2019-05-23T07:16:12.880Z,4.28
2019-05-23T07:18:41.090Z,4.45
2019-05-23T07:21:07.593Z,4.35
2019-05-23T07:23:34.122Z,4.58
2019-05-23T07:26:00.186Z,4.60
2019-05-23T07:28:26.680Z,4.80
2019-05-23T07:30:52.921Z,4.65
2019-05-23T07:33:19.109Z,4.67
2019-05-23T07:35:45.188Z,4.80
2019-05-23T07:38:11.130Z,4.60
2019-05-23T07:40:37.647Z,4.90
2019-05-23T07:43:04.002Z,3.98
2019-05-23T07:45:30.026Z,4.62
2019-05-23T07:47:56.150Z,4.25
2019-05-23T07:50:22.526Z,4.78
2019-05-23T07:52:48.563Z,4.67
2019-05-23T07:55:15.762Z,4.83
2019-05-23T07:57:42.220Z,4.87
2019-05-23T08:00:09.498Z,5.30
2019-05-23T08:02:39.409Z,5.15
2019-05-23T08:05:06.106Z,5.10
2019-05-23T08:07:33.253Z,5.15
2019-05-23T08:09:59.510Z,5.12
2019-05-23T08:12:25.647Z,5.30
2019-05-23T08:14:52.265Z,5.15
2019-05-23T08:17:18.713Z,5.00
2019-05-23T08:19:49.686Z,5.00
2019-05-23T08:22:14.609Z,5.12
2019-05-23T08:24:40.675Z,5.47
2019-05-23T08:27:07.131Z,5.60
2019-05-23T08:29:33.097Z,5.03
2019-05-23T08:32:00.230Z,5.03
2019-05-23T08:34:40.939Z,5.05
2019-05-23T08:36:54.263Z,5.12
2019-05-23T08:39:20.298Z,5.00
2019-05-23T08:41:47.307Z,5.17
2019-05-23T08:44:13.268Z,5.60
2019-05-23T08:46:39.207Z,5.28
2019-05-23T08:49:06.003Z,5.05
2019-05-23T08:51:31.989Z,5.58
2019-05-23T08:53:58.190Z,5.15
2019-05-23T08:56:24.266Z,5.62
2019-05-23T08:58:50.406Z,5.58
2019-05-23T09:01:16.500Z,5.42
2019-05-23T09:03:43.003Z,5.50
2019-05-23T09:06:09.420Z,5.80
2019-05-23T09:08:35.975Z,6.85
2019-05-23T09:11:02.185Z,6.53
2019-05-23T09:13:28.444Z,6.60
2019-05-23T09:15:54.964Z,7.75
2019-05-23T09:18:20.951Z,6.92
2019-05-23T09:20:47.153Z,8.93
2019-05-23T09:23:13.409Z,9.70
2019-05-23T09:25:39.906Z,10.25
2019-05-23T09:28:07.173Z,13.38
2019-05-23T09:30:33.335Z,10.98
2019-05-23T09:32:59.347Z,10.85
2019-05-23T09:35:25.593Z,11.15
2019-05-23T09:37:51.804Z,12.25
2019-05-23T09:40:18.235Z,12.88
2019-05-23T09:42:44.821Z,11.57
2019-05-23T09:45:12.056Z,12.28
2019-05-23T09:47:38.312Z,12.45
2019-05-23T09:50:08.181Z,13.58
2019-05-23T09:52:34.258Z,12.05
2019-05-23T09:55:00.195Z,12.15
2019-05-23T09:57:26.490Z,12.78
2019-05-23T09:59:56.765Z,13.03
2019-05-23T10:02:20.589Z,11.60
2019-05-23T10:04:46.712Z,11.88
2019-05-23T10:07:12.792Z,11.10
2019-05-23T10:09:38.764Z,11.30
2019-05-23T10:12:04.984Z,9.70
2019-05-23T10:14:31.014Z,9.48
2019-05-23T10:16:56.947Z,9.00
2019-05-23T10:19:23.276Z,8.75
2019-05-23T10:21:50.466Z,8.93
2019-05-23T10:24:17.455Z,9.20
2019-05-23T10:26:43.515Z,9.55
2019-05-23T10:29:09.916Z,9.08
2019-05-23T10:31:35.945Z,9.13
2019-05-23T10:34:02.333Z,8.50
2019-05-23T10:36:28.293Z,7.87
2019-05-23T10:38:54.505Z,6.95
2019-05-23T10:41:20.462Z,7.92
2019-05-23T10:43:46.631Z,7.22
2019-05-23T10:46:12.881Z,7.75
2019-05-23T10:48:39.230Z,7.60
2019-05-23T10:51:05.607Z,8.98
2019-05-23T10:53:31.753Z,7.45
2019-05-23T10:55:57.827Z,7.37
2019-05-23T10:58:24.144Z,6.15
2019-05-23T11:00:50.491Z,6.03
2019-05-23T11:03:17.260Z,5.70
2019-05-23T11:05:43.660Z,7.45
2019-05-23T11:08:10.044Z,5.30
2019-05-23T11:10:36.261Z,4.42
2019-05-23T11:13:02.528Z,8.23
2019-05-23T11:15:28.836Z,7.80
2019-05-23T11:17:54.850Z,6.90
2019-05-23T11:20:21.102Z,6.47
2019-05-23T11:22:47.303Z,5.05
2019-05-23T11:25:14.003Z,4.70
2019-05-23T11:27:40.074Z,5.87
2019-05-23T11:30:07.984Z,7.05
2019-05-23T11:32:33.915Z,8.55
2019-05-23T11:34:59.989Z,9.25
2019-05-23T11:37:26.243Z,8.23
2019-05-23T11:39:52.694Z,6.20
2019-05-23T11:42:18.928Z,6.20
2019-05-23T11:44:45.239Z,7.15
2019-05-23T11:47:11.350Z,7.30
2019-05-23T11:49:37.668Z,6.22
2019-05-23T11:52:03.931Z,6.90
2019-05-23T11:54:30.180Z,6.72
2019-05-23T11:56:56.260Z,6.12
2019-05-23T11:59:22.409Z,6.33
2019-05-23T12:01:48.491Z,5.75
2019-05-23T12:04:14.630Z,6.50
2019-05-23T12:06:54.351Z,5.35
2019-05-23T12:09:09.698Z,5.83
2019-05-23T12:11:41.268Z,6.10
2019-05-23T12:14:03.979Z,7.17
2019-05-23T12:16:30.035Z,7.45
2019-05-23T12:18:56.026Z,6.45
2019-05-23T12:21:22.078Z,7.90
2019-05-23T12:23:48.236Z,7.87
2019-05-23T12:26:14.297Z,7.20
2019-05-23T12:28:40.385Z,7.47
2019-05-23T12:31:06.434Z,7.05
2019-05-23T12:33:32.581Z,7.15
2019-05-23T12:35:58.740Z,7.30
2019-05-23T12:38:24.760Z,6.92
2019-05-23T12:40:50.810Z,8.33
2019-05-23T12:43:16.885Z,6.47
2019-05-23T12:45:42.948Z,7.22
2019-05-23T12:48:09.242Z,7.12
2019-05-23T12:50:35.419Z,7.53
2019-05-23T12:53:01.638Z,7.30
2019-05-23T12:55:27.600Z,7.03
2019-05-23T12:57:53.673Z,7.50
2019-05-23T13:00:19.922Z,7.00
2019-05-23T13:02:46.015Z,7.62
2019-05-23T13:05:12.360Z,6.60
2019-05-23T13:07:38.718Z,6.62
2019-05-23T13:10:06.178Z,6.40
2019-05-23T13:12:33.440Z,6.80
2019-05-23T13:14:59.780Z,6.67
2019-05-23T13:17:26.023Z,6.85
2019-05-23T13:19:51.968Z,6.95
2019-05-23T13:22:18.209Z,7.00
2019-05-23T13:24:52.707Z,6.50
2019-05-23T13:27:12.354Z,6.40
2019-05-23T13:29:38.411Z,6.00
2019-05-23T13:32:05.059Z,6.03
2019-05-23T13:34:31.108Z,6.37
2019-05-23T13:36:57.155Z,6.95
2019-05-23T13:39:23.643Z,6.47
2019-05-23T13:41:49.722Z,6.37
2019-05-23T13:44:31.916Z,6.75
2019-05-23T13:46:43.833Z,7.22
2019-05-23T13:49:09.865Z,6.87
2019-05-23T13:51:37.022Z,6.95
2019-05-23T13:54:03.471Z,6.70
2019-05-23T13:56:29.771Z,7.85
2019-05-23T13:58:55.929Z,7.72
2019-05-23T14:01:22.006Z,6.75
2019-05-23T14:03:48.344Z,7.22
2019-05-23T14:06:14.627Z,6.97
2019-05-23T14:08:40.749Z,6.67
2019-05-23T14:11:06.777Z,6.37
2019-05-23T14:13:33.288Z,6.97
2019-05-23T14:15:59.533Z,7.65
2019-05-23T14:18:25.777Z,8.83
2019-05-23T14:20:51.872Z,8.63
2019-05-23T14:23:18.181Z,8.15
2019-05-23T14:25:44.499Z,8.10
2019-05-23T14:28:11.519Z,7.65
2019-05-23T14:30:38.074Z,7.78
2019-05-23T14:33:07.443Z,6.70
2019-05-23T14:35:33.509Z,7.92
2019-05-23T14:37:59.795Z,8.28
2019-05-23T14:40:25.751Z,8.65
2019-05-23T14:42:53.177Z,7.65
2019-05-23T14:45:19.683Z,8.00
2019-05-23T14:47:45.900Z,8.20
2019-05-23T14:50:13.345Z,7.42
2019-05-23T14:52:39.736Z,8.13
2019-05-23T14:55:10.300Z,8.15
2019-05-23T14:57:35.281Z,7.75
2019-05-23T15:00:03.680Z,7.65
2019-05-23T15:02:31.150Z,7.92
2019-05-23T15:04:57.321Z,7.30
2019-05-23T15:07:23.399Z,24.85
2019-05-23T15:09:49.448Z,12.68
2019-05-23T15:12:15.853Z,9.38
2019-05-23T15:14:41.978Z,8.60
2019-05-23T15:17:08.176Z,8.48
2019-05-23T15:19:44.058Z,8.30
2019-05-23T15:22:02.521Z,8.20
2019-05-23T15:24:28.684Z,7.67
2019-05-23T15:26:55.010Z,7.92
2019-05-23T15:29:20.979Z,7.80
2019-05-23T15:32:01.127Z,6.92
2019-05-23T15:34:15.400Z,7.42
2019-05-23T15:36:41.342Z,6.95
2019-05-23T15:39:09.906Z,6.97
2019-05-23T15:41:35.874Z,7.70
2019-05-23T15:44:01.978Z,7.50
2019-05-23T15:46:28.097Z,7.15
2019-05-23T15:48:54.045Z,6.75
2019-05-23T15:51:20.232Z,5.97
2019-05-23T15:53:46.580Z,6.12
2019-05-23T15:56:26.667Z,6.67
2019-05-23T15:58:42.805Z,6.15
2019-05-23T16:01:09.066Z,5.95
2019-05-23T16:03:35.176Z,6.10
2019-05-23T16:06:01.505Z,6.20
2019-05-23T16:08:28.743Z,5.92
2019-05-23T16:10:54.893Z,5.58
2019-05-23T16:13:21.269Z,5.35
2019-05-23T16:15:47.556Z,4.87
2019-05-23T16:18:13.957Z,4.40
2019-05-23T16:20:40.518Z,4.60
2019-05-23T16:23:06.581Z,4.30
2019-05-23T16:25:32.856Z,4.45
2019-05-23T16:27:58.981Z,5.10
2019-05-23T16:30:25.458Z,4.33
2019-05-23T16:32:51.518Z,4.33
2019-05-23T16:35:17.822Z,4.20
2019-05-23T16:37:43.761Z,3.65
2019-05-23T16:40:10.487Z,4.03
2019-05-23T16:42:37.046Z,3.20
2019-05-23T16:45:06.266Z,3.85
2019-05-23T16:47:32.391Z,3.67
2019-05-23T16:49:58.581Z,3.60
2019-05-23T16:52:24.834Z,3.67
2019-05-23T16:54:50.893Z,3.40
2019-05-23T16:57:17.013Z,3.75
2019-05-23T16:59:43.417Z,3.47
2019-05-23T17:02:09.658Z,3.65
2019-05-23T17:04:36.167Z,3.80
2019-05-23T17:07:03.073Z,3.67
2019-05-23T17:09:31.720Z,3.50
2019-05-23T17:11:57.235Z,3.37
2019-05-23T17:14:23.563Z,3.60
2019-05-23T17:16:49.714Z,3.50
2019-05-23T17:19:15.822Z,3.47
2019-05-23T17:21:42.170Z,3.45
2019-05-23T17:24:08.442Z,3.58
2019-05-23T17:26:34.812Z,3.45
2019-05-23T17:29:01.351Z,3.50
2019-05-23T17:31:27.517Z,3.40
2019-05-23T17:33:53.850Z,3.30
2019-05-23T17:36:20.007Z,3.30
2019-05-23T17:38:47.955Z,3.65
2019-05-23T17:41:14.101Z,3.50
2019-05-23T17:43:40.117Z,3.02
2019-05-23T17:46:06.354Z,2.90
2019-05-23T17:48:32.683Z,3.20
2019-05-23T17:50:59.764Z,3.27
2019-05-23T17:53:25.857Z,3.12
2019-05-23T17:55:51.979Z,3.00
2019-05-23T17:58:18.105Z,3.15
2019-05-23T18:00:44.243Z,3.50
2019-05-23T18:03:10.237Z,3.67
2019-05-23T18:05:36.221Z,3.70
2019-05-23T18:08:03.612Z,4.15
2019-05-23T18:10:44.086Z,3.70
2019-05-23T18:12:57.875Z,3.90
2019-05-23T18:15:25.486Z,3.77
2019-05-23T18:17:51.630Z,3.35
2019-05-23T18:20:17.970Z,3.27
2019-05-23T18:22:44.188Z,3.40
2019-05-23T18:25:10.767Z,3.73
2019-05-23T18:27:37.086Z,3.50
2019-05-23T18:30:04.839Z,3.47
2019-05-23T18:32:31.541Z,3.80
2019-05-23T18:34:57.629Z,3.73
2019-05-23T18:37:24.220Z,3.90
2019-05-23T18:39:50.261Z,3.67
2019-05-23T18:42:16.655Z,3.90
2019-05-23T18:44:44.067Z,3.90
2019-05-23T18:47:10.208Z,3.97
2019-05-23T18:49:36.206Z,4.07
2019-05-23T18:52:02.794Z,3.83
2019-05-23T18:54:28.731Z,4.30
2019-05-23T18:56:55.041Z,4.10
2019-05-23T18:59:21.085Z,4.17
2019-05-23T19:01:47.678Z,4.20
2019-05-23T19:04:13.981Z,4.27
2019-05-23T19:06:40.175Z,4.43
2019-05-23T19:09:08.544Z,4.73
2019-05-23T19:11:34.523Z,4.37
2019-05-23T19:14:00.708Z,4.73
2019-05-23T19:16:27.150Z,4.17
2019-05-23T19:18:53.166Z,4.63
2019-05-23T19:21:19.465Z,4.57
2019-05-23T19:23:45.606Z,4.63
2019-05-23T19:26:11.773Z,4.87
2019-05-23T19:28:37.880Z,4.50
2019-05-23T19:31:04.298Z,5.00
2019-05-23T19:33:30.729Z,5.17
2019-05-23T19:35:57.049Z,4.90
2019-05-23T19:38:23.094Z,5.30
2019-05-23T19:40:49.108Z,5.33
2019-05-23T19:43:15.823Z,5.03
2019-05-23T19:45:42.103Z,5.07
2019-05-23T19:48:08.422Z,5.50
2019-05-23T19:50:34.779Z,5.40
2019-05-23T19:53:00.783Z,5.40
2019-05-23T19:55:26.868Z,5.20
2019-05-23T19:57:53.959Z,5.73
2019-05-23T20:00:21.270Z,5.93
2019-05-23T20:02:47.839Z,5.43
2019-05-23T20:05:14.159Z,5.90
2019-05-23T20:07:40.274Z,6.17
2019-05-23T20:10:07.604Z,6.23
2019-05-23T20:12:34.256Z,6.13
2019-05-23T20:15:00.579Z,6.07
2019-05-23T20:17:26.748Z,5.93
2019-05-23T20:19:54.112Z,5.60
2019-05-23T20:22:20.252Z,6.10
2019-05-23T20:24:46.300Z,6.17
2019-05-23T20:27:12.671Z,5.97
2019-05-23T20:29:38.811Z,6.53
2019-05-23T20:32:04.990Z,6.40
2019-05-23T20:34:31.749Z,6.60
2019-05-23T20:36:57.994Z,6.67
2019-05-23T20:39:24.025Z,7.30
2019-05-23T20:41:50.096Z,7.13
2019-05-23T20:44:16.355Z,6.90
2019-05-23T20:46:42.758Z,6.77
2019-05-23T20:49:08.973Z,7.50
2019-05-23T20:51:35.143Z,7.00
2019-05-23T20:54:02.399Z,8.30
2019-05-23T20:56:28.318Z,8.40
2019-05-23T20:58:54.412Z,8.50
2019-05-23T21:01:21.490Z,7.83
2019-05-23T21:03:47.581Z,7.63
2019-05-23T21:06:13.643Z,8.07
2019-05-23T21:08:40.077Z,8.30
2019-05-23T21:11:06.228Z,7.97
2019-05-23T21:13:32.496Z,8.37
2019-05-23T21:15:58.649Z,8.37
2019-05-23T21:18:24.872Z,8.27
2019-05-23T21:20:50.957Z,8.50
2019-05-23T21:23:17.092Z,8.47
2019-05-23T21:25:43.898Z,8.33
2019-05-23T21:28:09.957Z,7.37
2019-05-23T21:30:36.044Z,7.77
2019-05-23T21:33:02.920Z,8.43
2019-05-23T21:35:29.885Z,8.17
2019-05-23T21:37:55.928Z,8.17
2019-05-23T21:40:31.990Z,8.80
2019-05-23T21:42:58.083Z,8.63
2019-05-23T21:45:24.301Z,7.70
2019-05-23T21:47:50.297Z,8.10
2019-05-23T21:50:16.399Z,7.67
2019-05-23T21:52:42.475Z,8.37
2019-05-23T21:55:12.296Z,8.20
2019-05-23T21:57:38.271Z,9.23
2019-05-23T22:00:06.438Z,8.67
2019-05-23T22:02:34.461Z,9.63
2019-05-23T22:05:02.286Z,9.20
2019-05-23T22:07:28.735Z,7.47
2019-05-23T22:09:54.836Z,9.23
2019-05-23T22:12:21.354Z,9.00
2019-05-23T22:14:47.282Z,8.40
2019-05-23T22:17:13.661Z,8.27
2019-05-23T22:19:39.654Z,8.80
2019-05-23T22:22:05.910Z,10.07
2019-05-23T22:24:33.125Z,9.10
2019-05-23T22:26:59.092Z,7.57
2019-05-23T22:29:25.025Z,8.20
2019-05-23T22:31:51.677Z,9.07
2019-05-23T22:34:17.861Z,9.03
2019-05-23T22:36:43.992Z,8.73
2019-05-23T22:39:10.080Z,9.30
2019-05-23T22:41:36.357Z,9.70
2019-05-23T22:44:02.839Z,9.90
2019-05-23T22:46:28.917Z,9.33
2019-05-23T22:48:54.946Z,8.70
2019-05-23T22:51:20.928Z,8.97
2019-05-23T22:53:46.986Z,8.63
2019-05-23T22:56:13.046Z,9.40
2019-05-23T22:58:38.990Z,8.67
2019-05-23T23:01:04.984Z,9.43
2019-05-23T23:03:31.196Z,9.13
2019-05-23T23:05:57.404Z,9.27
2019-05-23T23:08:23.907Z,9.63
2019-05-23T23:10:50.227Z,9.90
2019-05-23T23:13:16.210Z,9.20
2019-05-23T23:15:42.363Z,9.23
2019-05-23T23:18:08.435Z,9.00
2019-05-23T23:20:34.604Z,9.07
2019-05-23T23:23:00.517Z,8.80
2019-05-23T23:25:26.589Z,9.13
2019-05-23T23:27:52.614Z,8.83
2019-05-23T23:30:18.851Z,8.70
2019-05-23T23:32:45.094Z,8.47
2019-05-23T23:35:11.427Z,8.70
2019-05-23T23:37:37.469Z,8.60
2019-05-23T23:40:05.298Z,7.77
2019-05-23T23:42:31.454Z,8.13
2019-05-23T23:44:57.530Z,8.03
2019-05-23T23:47:23.793Z,8.23
2019-05-23T23:49:50.344Z,8.50
2019-05-23T23:52:16.364Z,8.40
2019-05-23T23:54:42.549Z,8.03
2019-05-23T23:57:08.749Z,8.07
2019-05-23T23:59:34.774Z,8.73
